sensor_id;sensor_type;location;lat;lon;timestamp;P1;durP1;ratioP1;P2;durP2;ratioP2
72427;SDS011;60419;48.880;18.036;2023-11-19T00:01:48;22.15;;;12.43;;
72427;SDS011;60419;48.880;18.036;2023-11-19T00:04:37;22.92;;;12.60;;
72427;SDS011;60419;48.880;18.036;2023-11-19T00:07:24;21.65;;;11.50;;
72427;SDS011;60419;48.880;18.036;2023-11-19T00:10:10;20.52;;;12.00;;
72427;SDS011;60419;48.880;18.036;2023-11-19T00:13:06;19.48;;;11.90;;
72427;SDS011;60419;48.880;18.036;2023-11-19T00:15:52;22.13;;;11.82;;
72427;SDS011;60419;48.880;18.036;2023-11-19T00:18:37;23.45;;;13.68;;
72427;SDS011;60419;48.880;18.036;2023-11-19T00:21:23;22.55;;;11.70;;
72427;SDS011;60419;48.880;18.036;2023-11-19T00:24:08;21.08;;;11.80;;
72427;SDS011;60419;48.880;18.036;2023-11-19T00:26:54;17.90;;;9.57;;
72427;SDS011;60419;48.880;18.036;2023-11-19T00:29:39;39.47;;;23.10;;
72427;SDS011;60419;48.880;18.036;2023-11-19T00:32:25;21.83;;;12.07;;
72427;SDS011;60419;48.880;18.036;2023-11-19T00:35:10;23.02;;;12.38;;
72427;SDS011;60419;48.880;18.036;2023-11-19T00:37:57;19.90;;;11.60;;
72427;SDS011;60419;48.880;18.036;2023-11-19T00:40:42;18.88;;;11.60;;
72427;SDS011;60419;48.880;18.036;2023-11-19T00:43:29;21.17;;;11.95;;
72427;SDS011;60419;48.880;18.036;2023-11-19T00:46:14;21.17;;;11.57;;
72427;SDS011;60419;48.880;18.036;2023-11-19T00:49:00;21.50;;;12.25;;
72427;SDS011;60419;48.880;18.036;2023-11-19T00:51:46;20.65;;;11.85;;
72427;SDS011;60419;48.880;18.036;2023-11-19T00:54:31;22.98;;;12.65;;
72427;SDS011;60419;48.880;18.036;2023-11-19T00:57:17;22.45;;;12.73;;
72427;SDS011;60419;48.880;18.036;2023-11-19T01:00:03;22.23;;;12.32;;
72427;SDS011;60419;48.880;18.036;2023-11-19T01:02:56;21.60;;;12.93;;
72427;SDS011;60419;48.880;18.036;2023-11-19T01:05:41;21.88;;;12.15;;
72427;SDS011;60419;48.880;18.036;2023-11-19T01:08:27;26.48;;;12.85;;
72427;SDS011;60419;48.880;18.036;2023-11-19T01:11:19;22.30;;;12.48;;
72427;SDS011;60419;48.880;18.036;2023-11-19T01:14:06;21.13;;;12.73;;
72427;SDS011;60419;48.880;18.036;2023-11-19T01:16:51;21.40;;;12.98;;
72427;SDS011;60419;48.880;18.036;2023-11-19T01:19:38;22.60;;;12.73;;
72427;SDS011;60419;48.880;18.036;2023-11-19T01:22:24;21.80;;;11.07;;
72427;SDS011;60419;48.880;18.036;2023-11-19T01:25:09;21.73;;;11.98;;
72427;SDS011;60419;48.880;18.036;2023-11-19T01:27:55;19.63;;;10.52;;
72427;SDS011;60419;48.880;18.036;2023-11-19T01:30:43;20.13;;;11.75;;
72427;SDS011;60419;48.880;18.036;2023-11-19T01:33:28;23.00;;;12.43;;
72427;SDS011;60419;48.880;18.036;2023-11-19T01:36:14;19.42;;;10.65;;
72427;SDS011;60419;48.880;18.036;2023-11-19T01:38:59;18.90;;;10.25;;
72427;SDS011;60419;48.880;18.036;2023-11-19T01:41:45;20.25;;;10.95;;
72427;SDS011;60419;48.880;18.036;2023-11-19T01:44:30;24.67;;;12.93;;
72427;SDS011;60419;48.880;18.036;2023-11-19T01:47:17;22.52;;;11.43;;
72427;SDS011;60419;48.880;18.036;2023-11-19T01:50:03;21.65;;;11.68;;
72427;SDS011;60419;48.880;18.036;2023-11-19T01:52:54;20.95;;;11.23;;
72427;SDS011;60419;48.880;18.036;2023-11-19T01:55:45;21.92;;;11.93;;
72427;SDS011;60419;48.880;18.036;2023-11-19T01:58:32;19.05;;;10.80;;
72427;SDS011;60419;48.880;18.036;2023-11-19T02:01:19;19.13;;;10.50;;
72427;SDS011;60419;48.880;18.036;2023-11-19T02:04:08;23.35;;;11.77;;
72427;SDS011;60419;48.880;18.036;2023-11-19T02:06:54;18.13;;;10.50;;
72427;SDS011;60419;48.880;18.036;2023-11-19T02:09:43;21.77;;;12.02;;
72427;SDS011;60419;48.880;18.036;2023-11-19T02:12:28;19.10;;;11.02;;
72427;SDS011;60419;48.880;18.036;2023-11-19T02:15:14;22.55;;;10.85;;
72427;SDS011;60419;48.880;18.036;2023-11-19T02:21:04;16.63;;;9.43;;
72427;SDS011;60419;48.880;18.036;2023-11-19T02:23:50;17.85;;;10.20;;
72427;SDS011;60419;48.880;18.036;2023-11-19T02:26:39;21.38;;;10.63;;
72427;SDS011;60419;48.880;18.036;2023-11-19T02:29:47;16.20;;;10.48;;
72427;SDS011;60419;48.880;18.036;2023-11-19T02:32:32;22.02;;;9.40;;
72427;SDS011;60419;48.880;18.036;2023-11-19T02:35:18;21.70;;;10.90;;
72427;SDS011;60419;48.880;18.036;2023-11-19T02:38:03;18.13;;;9.93;;
72427;SDS011;60419;48.880;18.036;2023-11-19T02:40:48;20.52;;;11.93;;
72427;SDS011;60419;48.880;18.036;2023-11-19T02:43:34;19.73;;;10.50;;
72427;SDS011;60419;48.880;18.036;2023-11-19T02:46:20;19.73;;;10.68;;
72427;SDS011;60419;48.880;18.036;2023-11-19T02:49:06;20.98;;;10.90;;
72427;SDS011;60419;48.880;18.036;2023-11-19T02:51:51;22.75;;;11.15;;
72427;SDS011;60419;48.880;18.036;2023-11-19T02:54:37;19.27;;;10.68;;
72427;SDS011;60419;48.880;18.036;2023-11-19T02:57:22;20.60;;;11.15;;
72427;SDS011;60419;48.880;18.036;2023-11-19T03:00:08;19.20;;;11.35;;
72427;SDS011;60419;48.880;18.036;2023-11-19T03:02:57;22.92;;;12.45;;
72427;SDS011;60419;48.880;18.036;2023-11-19T03:05:54;18.92;;;10.57;;
72427;SDS011;60419;48.880;18.036;2023-11-19T03:08:40;20.10;;;11.07;;
72427;SDS011;60419;48.880;18.036;2023-11-19T03:11:25;18.48;;;10.15;;
72427;SDS011;60419;48.880;18.036;2023-11-19T03:14:11;18.95;;;10.90;;
72427;SDS011;60419;48.880;18.036;2023-11-19T03:16:57;17.42;;;9.85;;
72427;SDS011;60419;48.880;18.036;2023-11-19T03:19:42;19.73;;;9.88;;
72427;SDS011;60419;48.880;18.036;2023-11-19T03:22:27;20.08;;;10.27;;
72427;SDS011;60419;48.880;18.036;2023-11-19T03:25:13;20.48;;;11.05;;
72427;SDS011;60419;48.880;18.036;2023-11-19T03:27:58;19.50;;;10.10;;
72427;SDS011;60419;48.880;18.036;2023-11-19T03:30:47;20.58;;;11.48;;
72427;SDS011;60419;48.880;18.036;2023-11-19T03:33:33;18.40;;;10.18;;
72427;SDS011;60419;48.880;18.036;2023-11-19T03:36:18;20.85;;;10.70;;
72427;SDS011;60419;48.880;18.036;2023-11-19T03:39:03;19.63;;;10.93;;
72427;SDS011;60419;48.880;18.036;2023-11-19T03:41:49;19.58;;;10.25;;
72427;SDS011;60419;48.880;18.036;2023-11-19T03:44:34;16.35;;;10.00;;
72427;SDS011;60419;48.880;18.036;2023-11-19T03:47:19;19.55;;;10.23;;
72427;SDS011;60419;48.880;18.036;2023-11-19T03:50:05;20.25;;;11.20;;
72427;SDS011;60419;48.880;18.036;2023-11-19T03:52:52;19.73;;;10.48;;
72427;SDS011;60419;48.880;18.036;2023-11-19T03:55:37;20.90;;;10.75;;
72427;SDS011;60419;48.880;18.036;2023-11-19T03:58:23;21.05;;;11.27;;
72427;SDS011;60419;48.880;18.036;2023-11-19T04:01:11;20.70;;;11.48;;
72427;SDS011;60419;48.880;18.036;2023-11-19T04:04:00;22.25;;;11.77;;
72427;SDS011;60419;48.880;18.036;2023-11-19T04:06:45;21.23;;;11.63;;
72427;SDS011;60419;48.880;18.036;2023-11-19T04:09:31;25.27;;;12.65;;
72427;SDS011;60419;48.880;18.036;2023-11-19T04:12:19;23.40;;;12.20;;
72427;SDS011;60419;48.880;18.036;2023-11-19T04:15:05;20.25;;;12.40;;
72427;SDS011;60419;48.880;18.036;2023-11-19T04:17:51;19.02;;;10.93;;
72427;SDS011;60419;48.880;18.036;2023-11-19T04:20:36;21.90;;;11.52;;
72427;SDS011;60419;48.880;18.036;2023-11-19T04:23:22;23.02;;;11.73;;
72427;SDS011;60419;48.880;18.036;2023-11-19T04:26:07;22.02;;;11.75;;
72427;SDS011;60419;48.880;18.036;2023-11-19T04:28:52;20.00;;;11.68;;
72427;SDS011;60419;48.880;18.036;2023-11-19T04:31:38;17.58;;;10.20;;
72427;SDS011;60419;48.880;18.036;2023-11-19T04:34:24;18.90;;;10.55;;
72427;SDS011;60419;48.880;18.036;2023-11-19T04:37:09;18.35;;;10.45;;
72427;SDS011;60419;48.880;18.036;2023-11-19T04:39:55;21.83;;;11.52;;
72427;SDS011;60419;48.880;18.036;2023-11-19T04:42:40;20.50;;;10.68;;
72427;SDS011;60419;48.880;18.036;2023-11-19T04:45:25;20.05;;;10.77;;
72427;SDS011;60419;48.880;18.036;2023-11-19T04:48:11;20.15;;;10.70;;
72427;SDS011;60419;48.880;18.036;2023-11-19T04:50:57;21.88;;;10.55;;
72427;SDS011;60419;48.880;18.036;2023-11-19T04:53:43;19.50;;;10.20;;
72427;SDS011;60419;48.880;18.036;2023-11-19T04:56:28;19.70;;;9.93;;
72427;SDS011;60419;48.880;18.036;2023-11-19T04:59:13;18.08;;;10.35;;
72427;SDS011;60419;48.880;18.036;2023-11-19T05:01:59;15.75;;;8.82;;
72427;SDS011;60419;48.880;18.036;2023-11-19T05:04:44;15.02;;;8.38;;
72427;SDS011;60419;48.880;18.036;2023-11-19T05:07:31;16.67;;;9.63;;
72427;SDS011;60419;48.880;18.036;2023-11-19T05:10:17;14.57;;;8.73;;
72427;SDS011;60419;48.880;18.036;2023-11-19T05:13:02;16.67;;;9.35;;
72427;SDS011;60419;48.880;18.036;2023-11-19T05:15:47;14.48;;;8.82;;
72427;SDS011;60419;48.880;18.036;2023-11-19T05:18:33;15.90;;;8.13;;
72427;SDS011;60419;48.880;18.036;2023-11-19T05:21:18;16.27;;;8.75;;
72427;SDS011;60419;48.880;18.036;2023-11-19T05:24:03;15.50;;;8.73;;
72427;SDS011;60419;48.880;18.036;2023-11-19T05:26:49;15.35;;;9.48;;
72427;SDS011;60419;48.880;18.036;2023-11-19T05:29:35;19.77;;;10.05;;
72427;SDS011;60419;48.880;18.036;2023-11-19T05:32:23;15.38;;;9.20;;
72427;SDS011;60419;48.880;18.036;2023-11-19T05:35:09;16.48;;;9.23;;
72427;SDS011;60419;48.880;18.036;2023-11-19T05:37:54;16.95;;;9.82;;
72427;SDS011;60419;48.880;18.036;2023-11-19T05:40:41;17.90;;;10.00;;
72427;SDS011;60419;48.880;18.036;2023-11-19T05:43:26;17.38;;;9.73;;
72427;SDS011;60419;48.880;18.036;2023-11-19T05:46:12;21.45;;;10.23;;
72427;SDS011;60419;48.880;18.036;2023-11-19T05:48:58;19.20;;;9.70;;
72427;SDS011;60419;48.880;18.036;2023-11-19T05:51:43;17.73;;;9.55;;
72427;SDS011;60419;48.880;18.036;2023-11-19T05:54:29;17.85;;;10.65;;
72427;SDS011;60419;48.880;18.036;2023-11-19T05:57:14;18.40;;;9.75;;
72427;SDS011;60419;48.880;18.036;2023-11-19T06:00:03;19.30;;;10.25;;
72427;SDS011;60419;48.880;18.036;2023-11-19T06:02:53;19.08;;;10.75;;
72427;SDS011;60419;48.880;18.036;2023-11-19T06:05:38;19.70;;;11.30;;
72427;SDS011;60419;48.880;18.036;2023-11-19T06:08:23;21.45;;;10.88;;
72427;SDS011;60419;48.880;18.036;2023-11-19T06:11:12;22.15;;;10.82;;
72427;SDS011;60419;48.880;18.036;2023-11-19T06:14:05;22.50;;;10.77;;
72427;SDS011;60419;48.880;18.036;2023-11-19T06:16:51;20.45;;;12.07;;
72427;SDS011;60419;48.880;18.036;2023-11-19T06:19:37;16.42;;;9.88;;
72427;SDS011;60419;48.880;18.036;2023-11-19T06:22:25;16.98;;;9.68;;
72427;SDS011;60419;48.880;18.036;2023-11-19T06:25:11;19.23;;;10.75;;
72427;SDS011;60419;48.880;18.036;2023-11-19T06:27:59;18.55;;;10.13;;
72427;SDS011;60419;48.880;18.036;2023-11-19T06:30:45;21.02;;;11.63;;
72427;SDS011;60419;48.880;18.036;2023-11-19T06:33:30;20.80;;;11.23;;
72427;SDS011;60419;48.880;18.036;2023-11-19T06:36:16;17.77;;;10.98;;
72427;SDS011;60419;48.880;18.036;2023-11-19T06:39:01;18.70;;;10.18;;
72427;SDS011;60419;48.880;18.036;2023-11-19T06:41:47;24.40;;;10.52;;
72427;SDS011;60419;48.880;18.036;2023-11-19T06:44:32;23.63;;;11.27;;
72427;SDS011;60419;48.880;18.036;2023-11-19T06:47:18;19.13;;;10.60;;
72427;SDS011;60419;48.880;18.036;2023-11-19T06:50:03;23.75;;;12.27;;
72427;SDS011;60419;48.880;18.036;2023-11-19T06:52:50;21.70;;;11.45;;
72427;SDS011;60419;48.880;18.036;2023-11-19T06:55:36;20.45;;;10.77;;
72427;SDS011;60419;48.880;18.036;2023-11-19T06:58:21;21.50;;;11.65;;
72427;SDS011;60419;48.880;18.036;2023-11-19T07:01:07;21.75;;;11.98;;
72427;SDS011;60419;48.880;18.036;2023-11-19T07:03:53;21.27;;;12.10;;
72427;SDS011;60419;48.880;18.036;2023-11-19T07:06:38;23.48;;;11.73;;
72427;SDS011;60419;48.880;18.036;2023-11-19T07:09:26;21.02;;;11.60;;
72427;SDS011;60419;48.880;18.036;2023-11-19T07:12:12;21.40;;;11.48;;
72427;SDS011;60419;48.880;18.036;2023-11-19T07:14:58;20.63;;;12.32;;
72427;SDS011;60419;48.880;18.036;2023-11-19T07:17:43;20.05;;;11.68;;
72427;SDS011;60419;48.880;18.036;2023-11-19T07:20:30;19.65;;;11.18;;
72427;SDS011;60419;48.880;18.036;2023-11-19T07:23:16;19.83;;;10.90;;
72427;SDS011;60419;48.880;18.036;2023-11-19T07:26:04;20.10;;;11.32;;
72427;SDS011;60419;48.880;18.036;2023-11-19T07:28:50;21.73;;;11.95;;
72427;SDS011;60419;48.880;18.036;2023-11-19T07:31:35;23.02;;;11.95;;
72427;SDS011;60419;48.880;18.036;2023-11-19T07:34:22;19.80;;;11.57;;
72427;SDS011;60419;48.880;18.036;2023-11-19T07:37:07;20.98;;;12.02;;
72427;SDS011;60419;48.880;18.036;2023-11-19T07:39:52;20.48;;;11.10;;
72427;SDS011;60419;48.880;18.036;2023-11-19T07:42:38;22.50;;;11.27;;
72427;SDS011;60419;48.880;18.036;2023-11-19T07:45:23;19.02;;;10.73;;
72427;SDS011;60419;48.880;18.036;2023-11-19T07:48:08;19.58;;;9.50;;
72427;SDS011;60419;48.880;18.036;2023-11-19T07:50:54;16.30;;;9.25;;
72427;SDS011;60419;48.880;18.036;2023-11-19T07:53:40;16.83;;;8.68;;
72427;SDS011;60419;48.880;18.036;2023-11-19T07:56:26;15.55;;;8.55;;
72427;SDS011;60419;48.880;18.036;2023-11-19T07:59:11;13.13;;;8.15;;
72427;SDS011;60419;48.880;18.036;2023-11-19T08:01:56;14.73;;;7.93;;
72427;SDS011;60419;48.880;18.036;2023-11-19T08:04:43;15.68;;;9.15;;
72427;SDS011;60419;48.880;18.036;2023-11-19T08:07:30;13.65;;;8.20;;
72427;SDS011;60419;48.880;18.036;2023-11-19T08:10:16;13.60;;;7.38;;
72427;SDS011;60419;48.880;18.036;2023-11-19T08:13:01;12.82;;;7.63;;
72427;SDS011;60419;48.880;18.036;2023-11-19T08:15:47;15.63;;;8.68;;
72427;SDS011;60419;48.880;18.036;2023-11-19T08:18:32;15.70;;;8.90;;
72427;SDS011;60419;48.880;18.036;2023-11-19T08:21:18;16.48;;;9.75;;
72427;SDS011;60419;48.880;18.036;2023-11-19T08:24:03;15.07;;;9.32;;
72427;SDS011;60419;48.880;18.036;2023-11-19T08:26:49;18.40;;;9.38;;
72427;SDS011;60419;48.880;18.036;2023-11-19T08:29:34;22.85;;;11.85;;
72427;SDS011;60419;48.880;18.036;2023-11-19T08:32:19;16.73;;;9.52;;
72427;SDS011;60419;48.880;18.036;2023-11-19T08:35:05;15.63;;;9.35;;
72427;SDS011;60419;48.880;18.036;2023-11-19T08:37:50;14.80;;;9.40;;
72427;SDS011;60419;48.880;18.036;2023-11-19T08:40:37;16.70;;;9.48;;
72427;SDS011;60419;48.880;18.036;2023-11-19T08:43:23;16.92;;;10.00;;
72427;SDS011;60419;48.880;18.036;2023-11-19T08:46:09;16.77;;;10.38;;
72427;SDS011;60419;48.880;18.036;2023-11-19T08:48:56;20.42;;;10.75;;
72427;SDS011;60419;48.880;18.036;2023-11-19T08:51:42;22.73;;;12.20;;
72427;SDS011;60419;48.880;18.036;2023-11-19T08:54:28;20.88;;;12.05;;
72427;SDS011;60419;48.880;18.036;2023-11-19T08:57:13;21.42;;;11.43;;
72427;SDS011;60419;48.880;18.036;2023-11-19T08:59:58;19.73;;;11.90;;
72427;SDS011;60419;48.880;18.036;2023-11-19T09:02:44;20.17;;;11.55;;
72427;SDS011;60419;48.880;18.036;2023-11-19T09:05:29;21.95;;;12.05;;
72427;SDS011;60419;48.880;18.036;2023-11-19T09:08:15;18.13;;;10.02;;
72427;SDS011;60419;48.880;18.036;2023-11-19T09:11:00;18.17;;;10.40;;
72427;SDS011;60419;48.880;18.036;2023-11-19T09:13:46;20.08;;;10.50;;
72427;SDS011;60419;48.880;18.036;2023-11-19T09:16:31;19.08;;;11.57;;
72427;SDS011;60419;48.880;18.036;2023-11-19T09:19:17;18.38;;;11.10;;
72427;SDS011;60419;48.880;18.036;2023-11-19T09:22:02;17.63;;;10.05;;
72427;SDS011;60419;48.880;18.036;2023-11-19T09:24:48;18.30;;;10.50;;
72427;SDS011;60419;48.880;18.036;2023-11-19T09:27:34;18.13;;;10.27;;
72427;SDS011;60419;48.880;18.036;2023-11-19T09:30:19;16.65;;;9.95;;
72427;SDS011;60419;48.880;18.036;2023-11-19T09:33:05;18.73;;;10.13;;
72427;SDS011;60419;48.880;18.036;2023-11-19T09:35:50;19.75;;;11.45;;
72427;SDS011;60419;48.880;18.036;2023-11-19T09:38:36;17.52;;;10.10;;
72427;SDS011;60419;48.880;18.036;2023-11-19T09:41:24;14.50;;;8.73;;
72427;SDS011;60419;48.880;18.036;2023-11-19T09:44:10;14.48;;;8.73;;
72427;SDS011;60419;48.880;18.036;2023-11-19T09:46:56;15.35;;;8.77;;
72427;SDS011;60419;48.880;18.036;2023-11-19T09:49:44;16.83;;;9.15;;
72427;SDS011;60419;48.880;18.036;2023-11-19T09:52:30;15.98;;;8.95;;
72427;SDS011;60419;48.880;18.036;2023-11-19T09:55:15;15.32;;;8.68;;
72427;SDS011;60419;48.880;18.036;2023-11-19T09:58:01;16.42;;;8.98;;
72427;SDS011;60419;48.880;18.036;2023-11-19T10:00:47;12.75;;;7.85;;
72427;SDS011;60419;48.880;18.036;2023-11-19T10:03:35;15.65;;;8.90;;
72427;SDS011;60419;48.880;18.036;2023-11-19T10:06:25;13.90;;;7.55;;
72427;SDS011;60419;48.880;18.036;2023-11-19T10:09:12;15.18;;;8.10;;
72427;SDS011;60419;48.880;18.036;2023-11-19T10:12:00;9.95;;;6.43;;
72427;SDS011;60419;48.880;18.036;2023-11-19T10:14:46;12.25;;;7.05;;
72427;SDS011;60419;48.880;18.036;2023-11-19T10:17:33;9.85;;;6.03;;
72427;SDS011;60419;48.880;18.036;2023-11-19T10:20:19;11.32;;;6.60;;
72427;SDS011;60419;48.880;18.036;2023-11-19T10:23:05;10.40;;;6.20;;
72427;SDS011;60419;48.880;18.036;2023-11-19T10:25:52;11.52;;;7.05;;
72427;SDS011;60419;48.880;18.036;2023-11-19T10:28:41;10.80;;;6.53;;
72427;SDS011;60419;48.880;18.036;2023-11-19T10:31:31;12.52;;;7.07;;
72427;SDS011;60419;48.880;18.036;2023-11-19T10:34:25;10.93;;;6.30;;
72427;SDS011;60419;48.880;18.036;2023-11-19T10:37:27;11.07;;;6.47;;
72427;SDS011;60419;48.880;18.036;2023-11-19T10:40:16;9.93;;;6.25;;
72427;SDS011;60419;48.880;18.036;2023-11-19T10:43:03;9.90;;;5.80;;
72427;SDS011;60419;48.880;18.036;2023-11-19T10:45:49;10.20;;;6.40;;
72427;SDS011;60419;48.880;18.036;2023-11-19T10:48:34;11.98;;;7.07;;
72427;SDS011;60419;48.880;18.036;2023-11-19T10:51:20;10.55;;;6.65;;
72427;SDS011;60419;48.880;18.036;2023-11-19T10:54:07;10.13;;;6.60;;
72427;SDS011;60419;48.880;18.036;2023-11-19T10:57:00;11.02;;;6.40;;
72427;SDS011;60419;48.880;18.036;2023-11-19T10:59:47;10.93;;;6.70;;
72427;SDS011;60419;48.880;18.036;2023-11-19T11:02:35;12.25;;;7.07;;
72427;SDS011;60419;48.880;18.036;2023-11-19T11:05:25;11.70;;;7.43;;
72427;SDS011;60419;48.880;18.036;2023-11-19T11:08:11;11.85;;;7.10;;
72427;SDS011;60419;48.880;18.036;2023-11-19T11:10:57;13.60;;;7.15;;
72427;SDS011;60419;48.880;18.036;2023-11-19T11:13:42;13.05;;;7.72;;
72427;SDS011;60419;48.880;18.036;2023-11-19T11:16:30;13.68;;;7.95;;
72427;SDS011;60419;48.880;18.036;2023-11-19T11:19:16;13.55;;;7.85;;
72427;SDS011;60419;48.880;18.036;2023-11-19T11:22:03;12.88;;;7.03;;
72427;SDS011;60419;48.880;18.036;2023-11-19T11:35:12;14.35;;;8.80;;
72427;SDS011;60419;48.880;18.036;2023-11-19T11:37:44;15.27;;;9.68;;
72427;SDS011;60419;48.880;18.036;2023-11-19T11:40:33;16.17;;;9.88;;
72427;SDS011;60419;48.880;18.036;2023-11-19T11:44:04;14.93;;;8.32;;
72427;SDS011;60419;48.880;18.036;2023-11-19T11:49:16;12.68;;;8.15;;
72427;SDS011;60419;48.880;18.036;2023-11-19T11:52:11;12.60;;;7.88;;
72427;SDS011;60419;48.880;18.036;2023-11-19T11:55:04;17.65;;;10.25;;
72427;SDS011;60419;48.880;18.036;2023-11-19T11:57:53;14.68;;;7.93;;
72427;SDS011;60419;48.880;18.036;2023-11-19T12:00:41;15.02;;;8.25;;
72427;SDS011;60419;48.880;18.036;2023-11-19T12:03:27;13.43;;;7.97;;
72427;SDS011;60419;48.880;18.036;2023-11-19T12:06:14;11.80;;;7.25;;
72427;SDS011;60419;48.880;18.036;2023-11-19T12:08:59;11.55;;;6.38;;
72427;SDS011;60419;48.880;18.036;2023-11-19T12:11:47;11.32;;;6.72;;
72427;SDS011;60419;48.880;18.036;2023-11-19T12:17:49;13.32;;;7.78;;
72427;SDS011;60419;48.880;18.036;2023-11-19T12:20:35;11.15;;;6.43;;
72427;SDS011;60419;48.880;18.036;2023-11-19T12:23:22;10.80;;;6.43;;
72427;SDS011;60419;48.880;18.036;2023-11-19T12:26:08;10.50;;;6.10;;
72427;SDS011;60419;48.880;18.036;2023-11-19T12:29:15;10.30;;;6.32;;
72427;SDS011;60419;48.880;18.036;2023-11-19T12:32:00;10.27;;;5.85;;
72427;SDS011;60419;48.880;18.036;2023-11-19T12:34:48;9.77;;;5.95;;
72427;SDS011;60419;48.880;18.036;2023-11-19T12:37:33;9.38;;;6.03;;
72427;SDS011;60419;48.880;18.036;2023-11-19T12:40:24;10.18;;;5.68;;
72427;SDS011;60419;48.880;18.036;2023-11-19T12:43:10;10.43;;;6.35;;
72427;SDS011;60419;48.880;18.036;2023-11-19T12:46:22;8.45;;;5.40;;
72427;SDS011;60419;48.880;18.036;2023-11-19T12:49:08;8.63;;;5.38;;
72427;SDS011;60419;48.880;18.036;2023-11-19T12:51:56;9.85;;;6.22;;
72427;SDS011;60419;48.880;18.036;2023-11-19T12:54:41;9.00;;;5.63;;
72427;SDS011;60419;48.880;18.036;2023-11-19T12:57:36;10.00;;;5.30;;
72427;SDS011;60419;48.880;18.036;2023-11-19T13:00:26;9.00;;;4.95;;
72427;SDS011;60419;48.880;18.036;2023-11-19T13:03:12;9.30;;;5.78;;
72427;SDS011;60419;48.880;18.036;2023-11-19T13:08:50;9.68;;;5.32;;
72427;SDS011;60419;48.880;18.036;2023-11-19T13:11:38;9.70;;;5.13;;
72427;SDS011;60419;48.880;18.036;2023-11-19T13:14:35;7.43;;;4.50;;
72427;SDS011;60419;48.880;18.036;2023-11-19T13:17:23;9.25;;;5.78;;
72427;SDS011;60419;48.880;18.036;2023-11-19T13:20:09;9.40;;;5.85;;
72427;SDS011;60419;48.880;18.036;2023-11-19T13:22:58;9.30;;;6.07;;
72427;SDS011;60419;48.880;18.036;2023-11-19T13:25:45;9.98;;;6.55;;
72427;SDS011;60419;48.880;18.036;2023-11-19T13:28:30;9.55;;;6.00;;
72427;SDS011;60419;48.880;18.036;2023-11-19T13:31:16;9.40;;;6.10;;
72427;SDS011;60419;48.880;18.036;2023-11-19T13:34:01;8.27;;;5.07;;
72427;SDS011;60419;48.880;18.036;2023-11-19T13:36:47;9.30;;;5.70;;
72427;SDS011;60419;48.880;18.036;2023-11-19T13:39:32;9.68;;;5.82;;
72427;SDS011;60419;48.880;18.036;2023-11-19T13:42:17;9.57;;;5.80;;
72427;SDS011;60419;48.880;18.036;2023-11-19T13:45:03;10.20;;;6.28;;
72427;SDS011;60419;48.880;18.036;2023-11-19T13:47:49;9.05;;;5.60;;
72427;SDS011;60419;48.880;18.036;2023-11-19T13:50:34;11.52;;;6.63;;
72427;SDS011;60419;48.880;18.036;2023-11-19T13:53:20;9.55;;;5.82;;
72427;SDS011;60419;48.880;18.036;2023-11-19T13:56:05;9.93;;;6.40;;
72427;SDS011;60419;48.880;18.036;2023-11-19T13:58:51;12.52;;;6.18;;
72427;SDS011;60419;48.880;18.036;2023-11-19T14:01:38;9.40;;;5.72;;
72427;SDS011;60419;48.880;18.036;2023-11-19T14:04:23;11.13;;;6.63;;
72427;SDS011;60419;48.880;18.036;2023-11-19T14:07:09;9.40;;;6.25;;
72427;SDS011;60419;48.880;18.036;2023-11-19T14:09:54;12.60;;;7.90;;
72427;SDS011;60419;48.880;18.036;2023-11-19T14:12:39;9.63;;;6.07;;
72427;SDS011;60419;48.880;18.036;2023-11-19T14:15:25;9.88;;;5.85;;
72427;SDS011;60419;48.880;18.036;2023-11-19T14:18:11;10.18;;;6.32;;
72427;SDS011;60419;48.880;18.036;2023-11-19T14:20:56;9.40;;;5.53;;
72427;SDS011;60419;48.880;18.036;2023-11-19T14:23:41;9.80;;;6.05;;
72427;SDS011;60419;48.880;18.036;2023-11-19T14:26:27;8.70;;;5.68;;
72427;SDS011;60419;48.880;18.036;2023-11-19T14:29:12;9.48;;;5.75;;
72427;SDS011;60419;48.880;18.036;2023-11-19T14:31:57;9.77;;;5.93;;
72427;SDS011;60419;48.880;18.036;2023-11-19T14:34:44;9.43;;;5.85;;
72427;SDS011;60419;48.880;18.036;2023-11-19T14:37:30;9.00;;;5.43;;
72427;SDS011;60419;48.880;18.036;2023-11-19T14:40:18;11.07;;;6.20;;
72427;SDS011;60419;48.880;18.036;2023-11-19T14:43:03;12.90;;;6.05;;
72427;SDS011;60419;48.880;18.036;2023-11-19T14:45:49;12.43;;;7.22;;
72427;SDS011;60419;48.880;18.036;2023-11-19T14:48:34;10.32;;;6.75;;
72427;SDS011;60419;48.880;18.036;2023-11-19T14:51:19;10.93;;;7.00;;
72427;SDS011;60419;48.880;18.036;2023-11-19T14:54:06;11.73;;;6.85;;
72427;SDS011;60419;48.880;18.036;2023-11-19T14:56:51;12.38;;;7.65;;
72427;SDS011;60419;48.880;18.036;2023-11-19T14:59:37;11.85;;;7.40;;
72427;SDS011;60419;48.880;18.036;2023-11-19T15:02:22;11.77;;;7.57;;
72427;SDS011;60419;48.880;18.036;2023-11-19T15:05:08;14.02;;;7.78;;
72427;SDS011;60419;48.880;18.036;2023-11-19T15:07:58;12.73;;;7.95;;
72427;SDS011;60419;48.880;18.036;2023-11-19T15:10:43;15.48;;;8.68;;
72427;SDS011;60419;48.880;18.036;2023-11-19T15:13:30;13.38;;;8.80;;
72427;SDS011;60419;48.880;18.036;2023-11-19T15:16:15;15.27;;;9.23;;
72427;SDS011;60419;48.880;18.036;2023-11-19T15:19:07;14.43;;;9.20;;
72427;SDS011;60419;48.880;18.036;2023-11-19T15:21:53;20.77;;;10.35;;
72427;SDS011;60419;48.880;18.036;2023-11-19T15:24:40;31.95;;;16.52;;
72427;SDS011;60419;48.880;18.036;2023-11-19T15:27:26;26.52;;;13.82;;
72427;SDS011;60419;48.880;18.036;2023-11-19T15:30:12;22.83;;;12.93;;
72427;SDS011;60419;48.880;18.036;2023-11-19T15:32:58;20.77;;;11.25;;
72427;SDS011;60419;48.880;18.036;2023-11-19T15:35:43;19.73;;;11.65;;
72427;SDS011;60419;48.880;18.036;2023-11-19T15:38:28;18.70;;;10.85;;
72427;SDS011;60419;48.880;18.036;2023-11-19T15:41:14;19.08;;;10.77;;
72427;SDS011;60419;48.880;18.036;2023-11-19T15:44:00;17.90;;;10.48;;
72427;SDS011;60419;48.880;18.036;2023-11-19T15:46:45;17.52;;;10.95;;
72427;SDS011;60419;48.880;18.036;2023-11-19T15:49:30;18.13;;;11.13;;
72427;SDS011;60419;48.880;18.036;2023-11-19T15:52:16;17.48;;;10.27;;
72427;SDS011;60419;48.880;18.036;2023-11-19T15:55:01;19.67;;;11.65;;
72427;SDS011;60419;48.880;18.036;2023-11-19T15:57:48;19.02;;;11.02;;
72427;SDS011;60419;48.880;18.036;2023-11-19T16:00:33;19.38;;;10.88;;
72427;SDS011;60419;48.880;18.036;2023-11-19T16:03:19;21.20;;;11.55;;
72427;SDS011;60419;48.880;18.036;2023-11-19T16:06:04;20.73;;;11.77;;
72427;SDS011;60419;48.880;18.036;2023-11-19T16:08:50;20.83;;;11.45;;
72427;SDS011;60419;48.880;18.036;2023-11-19T16:11:36;20.25;;;11.98;;
72427;SDS011;60419;48.880;18.036;2023-11-19T16:14:21;21.65;;;12.30;;
72427;SDS011;60419;48.880;18.036;2023-11-19T16:17:07;21.63;;;12.52;;
72427;SDS011;60419;48.880;18.036;2023-11-19T16:19:53;21.80;;;12.30;;
72427;SDS011;60419;48.880;18.036;2023-11-19T16:22:38;18.75;;;11.40;;
72427;SDS011;60419;48.880;18.036;2023-11-19T16:25:24;20.00;;;11.15;;
72427;SDS011;60419;48.880;18.036;2023-11-19T16:28:09;21.08;;;11.32;;
72427;SDS011;60419;48.880;18.036;2023-11-19T16:30:55;23.83;;;10.95;;